createdAt,value
2018-09-27T14:17:16.914Z,22.00
2018-09-27T14:18:17.191Z,22.04
2018-09-27T14:19:16.470Z,22.00
2018-09-27T14:20:16.757Z,21.89
2018-09-27T14:21:16.793Z,21.92
2018-09-27T14:22:17.071Z,21.82
2018-09-27T14:23:16.332Z,21.66
2018-09-27T14:24:16.608Z,21.62
2018-09-27T14:25:16.897Z,21.44
2018-09-27T14:26:17.163Z,21.33
2018-09-27T14:27:16.440Z,21.52
2018-09-27T14:28:16.704Z,21.95
2018-09-27T14:29:16.975Z,21.97
2018-09-27T14:30:16.253Z,21.95
2018-09-27T14:31:16.323Z,22.06
2018-09-27T14:32:16.672Z,22.15
2018-09-27T14:33:17.182Z,22.06
2018-09-27T14:34:16.474Z,22.04
2018-09-27T14:35:16.749Z,22.11
2018-09-27T14:36:17.025Z,22.07
2018-09-27T14:37:16.297Z,22.04
2018-09-27T14:38:16.560Z,21.92
2018-09-27T14:39:16.872Z,21.95
2018-09-27T14:40:16.224Z,22.06
2018-09-27T14:41:16.253Z,22.00
2018-09-27T14:42:16.517Z,21.92
2018-09-27T14:43:16.795Z,21.76
2018-09-27T14:44:17.070Z,21.81
2018-09-27T14:45:16.327Z,21.85
2018-09-27T14:46:16.601Z,22.21
2018-09-27T14:47:16.868Z,22.36
2018-09-27T14:48:17.136Z,22.34
2018-09-27T14:49:16.414Z,22.38
2018-09-27T14:50:16.783Z,22.32
2018-09-27T14:51:16.724Z,22.21
2018-09-27T14:52:16.998Z,22.24
2018-09-27T14:53:16.261Z,22.14
2018-09-27T14:54:16.532Z,22.06
2018-09-27T14:55:16.807Z,22.07
2018-09-27T14:56:17.131Z,22.13
2018-09-27T14:57:16.636Z,22.21
2018-09-27T14:58:16.901Z,22.34
2018-09-27T14:59:17.174Z,22.43
2018-09-27T15:00:16.447Z,22.36
2018-09-27T15:01:16.502Z,22.28
2018-09-27T15:02:16.899Z,22.29
2018-09-27T15:03:16.503Z,22.25
2018-09-27T15:04:16.771Z,22.20
2018-09-27T15:05:17.042Z,21.99
2018-09-27T15:06:16.304Z,22.28
2018-09-27T15:07:16.581Z,22.28
2018-09-27T15:08:16.843Z,22.25
2018-09-27T15:09:17.166Z,22.17
2018-09-27T15:10:16.814Z,22.06
2018-09-27T15:11:16.732Z,21.99
2018-09-27T15:12:17.014Z,21.84
2018-09-27T15:13:16.541Z,21.67
2018-09-27T15:14:16.812Z,21.33
2018-09-27T15:15:17.087Z,21.59
2018-09-27T15:16:16.386Z,21.60
2018-09-27T15:17:16.764Z,21.57
2018-09-27T15:18:17.036Z,21.46
2018-09-27T15:19:16.304Z,21.46
2018-09-27T15:20:16.605Z,21.77
2018-09-27T15:21:16.624Z,21.97
2018-09-27T15:22:16.885Z,22.02
2018-09-27T15:23:17.174Z,21.82
2018-09-27T15:24:16.454Z,21.77
2018-09-27T15:25:16.732Z,21.96
2018-09-27T15:26:17.003Z,22.07
2018-09-27T15:27:16.273Z,22.20
2018-09-27T15:28:16.542Z,22.07
2018-09-27T15:29:16.811Z,22.11
2018-09-27T15:30:17.083Z,22.13
2018-09-27T15:31:17.130Z,22.10
2018-09-27T15:32:16.403Z,22.03
2018-09-27T15:33:16.680Z,21.97
2018-09-27T15:34:16.958Z,21.93
2018-09-27T17:26:16.573Z,15.06
2018-09-27T17:27:16.854Z,15.02
2018-09-27T17:28:17.134Z,14.98
2018-09-27T17:29:16.401Z,15.06
2018-09-27T17:30:16.674Z,15.01
2018-09-27T17:31:16.724Z,14.85
2018-09-27T17:32:17.000Z,14.78
2018-09-27T17:33:16.375Z,14.64
2018-09-27T17:34:16.963Z,14.60
2018-09-27T17:35:16.231Z,14.55
2018-09-27T17:36:16.521Z,14.62
2018-09-27T17:37:16.792Z,14.63
2018-09-27T17:38:17.058Z,14.57
2018-09-27T17:39:16.331Z,14.49
2018-09-27T17:40:16.654Z,14.39
2018-09-27T17:41:16.659Z,14.40
2018-09-27T17:42:16.933Z,14.33
2018-09-27T17:43:17.210Z,14.23
2018-09-27T17:44:16.489Z,14.25
2018-09-27T17:45:16.769Z,14.16
2018-09-27T17:46:17.049Z,14.16
2018-09-27T17:47:16.507Z,14.05
2018-09-27T17:48:16.784Z,14.00
2018-09-27T17:49:17.062Z,13.84
2018-09-27T17:50:16.336Z,13.77
2018-09-27T17:51:16.389Z,13.60
2018-09-27T17:52:16.713Z,13.60
2018-09-27T17:53:17.151Z,13.51
2018-09-27T17:54:16.779Z,13.47
2018-09-27T17:55:17.061Z,13.47
2018-09-27T17:56:16.341Z,13.50
2018-09-27T17:57:16.615Z,13.39
2018-09-27T17:58:16.883Z,13.37
2018-09-27T17:59:17.173Z,13.39
2018-09-27T18:00:16.450Z,13.37
2018-09-27T18:01:16.497Z,13.32
2018-09-27T18:02:16.772Z,13.27
2018-09-27T18:03:17.051Z,13.22
2018-09-27T18:04:16.319Z,13.22
2018-09-27T18:05:19.495Z,13.22
2018-09-27T18:06:16.965Z,13.15
2018-09-27T18:07:16.243Z,13.11
2018-09-27T18:08:16.510Z,13.06
2018-09-27T18:09:16.795Z,13.04
2018-09-27T18:10:17.069Z,12.96
2018-09-27T18:11:17.234Z,12.91
2018-09-27T18:12:16.510Z,12.84
2018-09-27T18:13:16.792Z,12.79
2018-09-27T18:14:17.118Z,12.75
2018-09-27T18:15:16.390Z,12.70
2018-09-27T18:16:16.662Z,12.68
2018-09-27T18:17:16.930Z,12.61
2018-09-27T18:18:16.205Z,12.56
2018-09-27T18:19:16.478Z,12.57
2018-09-27T18:20:16.752Z,12.47
2018-09-27T18:21:16.778Z,12.47
2018-09-27T18:22:17.050Z,12.50
2018-09-27T18:23:16.315Z,12.63
2018-09-27T18:24:16.584Z,12.57
2018-09-27T18:25:16.857Z,12.51
2018-09-27T18:26:17.124Z,12.50
2018-09-27T18:27:16.394Z,12.43
2018-09-27T18:28:16.672Z,12.43
2018-09-27T18:29:16.936Z,12.39
2018-09-27T18:30:17.225Z,12.40
2018-09-27T18:31:16.284Z,12.35
2018-09-27T18:32:16.788Z,12.25
2018-09-27T18:33:17.055Z,12.23
2018-09-27T18:34:16.334Z,12.18
2018-09-27T18:35:16.605Z,12.15
2018-09-27T18:36:16.874Z,12.16
2018-09-27T18:37:17.189Z,12.12
2018-09-27T18:38:16.858Z,11.98
2018-09-27T18:39:16.714Z,11.95
2018-09-27T18:40:17.072Z,11.86
2018-09-27T18:41:17.033Z,11.84
2018-09-27T18:42:16.306Z,11.81
2018-09-27T18:43:16.974Z,11.81
2018-09-27T18:44:16.391Z,11.82
2018-09-27T18:45:16.682Z,11.82
2018-09-27T18:46:16.953Z,11.75
2018-09-27T18:47:16.221Z,11.80
2018-09-27T18:48:16.498Z,11.80
2018-09-27T18:49:16.769Z,11.85
2018-09-27T18:50:17.050Z,11.85
2018-09-27T18:51:17.151Z,11.93
2018-09-27T18:52:16.530Z,11.70
2018-09-27T18:53:16.794Z,11.61
2018-09-27T18:54:17.071Z,11.47
2018-09-27T18:55:16.347Z,11.42
2018-09-27T18:56:16.616Z,11.34
2018-09-27T18:57:16.889Z,11.33
2018-09-27T18:58:17.176Z,11.30
2018-09-27T18:59:16.450Z,11.20
2018-09-27T19:00:16.732Z,11.19
2018-09-27T19:01:16.770Z,11.22
2018-09-27T19:02:17.040Z,11.25
2018-09-27T19:03:16.314Z,11.22
2018-09-27T19:04:16.584Z,11.13
2018-09-27T19:05:16.865Z,11.10
2018-09-27T19:06:17.132Z,11.07
2018-09-27T19:07:16.400Z,11.03
2018-09-27T19:08:16.674Z,11.03
2018-09-27T19:09:17.047Z,10.99
2018-09-27T19:10:16.332Z,10.92
2018-09-27T19:11:16.452Z,10.92
2018-09-27T19:12:16.794Z,10.87
2018-09-27T19:13:17.348Z,10.85
2018-09-27T19:14:16.621Z,10.81
2018-09-27T19:15:16.881Z,10.77
2018-09-27T19:16:17.147Z,10.72
2018-09-27T19:17:16.480Z,10.75
2018-09-27T19:18:16.946Z,10.72
2018-09-27T19:19:16.204Z,10.65
2018-09-27T19:20:16.479Z,10.65
2018-09-27T19:21:16.556Z,10.68
2018-09-27T19:22:16.821Z,10.64
2018-09-27T19:23:17.098Z,10.61
2018-09-27T19:24:16.366Z,10.56
2018-09-27T19:25:16.650Z,10.58
2018-09-27T19:26:16.914Z,10.61
2018-09-27T19:27:17.178Z,10.60
2018-09-27T19:28:16.450Z,10.63
2018-09-27T19:29:16.756Z,10.60
2018-09-27T19:30:17.036Z,10.52
2018-09-27T19:31:17.080Z,10.52
2018-09-27T19:32:16.358Z,10.50
2018-09-27T19:33:16.626Z,10.47
2018-09-27T19:34:16.890Z,10.43
2018-09-27T19:35:17.168Z,10.40
2018-09-27T19:36:16.441Z,10.41
2018-09-27T19:37:16.707Z,10.34
2018-09-27T19:38:16.970Z,10.27
2018-09-27T19:39:16.313Z,10.26
2018-09-27T19:40:16.700Z,10.27
2018-09-27T19:41:16.734Z,10.26
2018-09-27T19:42:17.002Z,10.27
2018-09-27T19:43:16.266Z,10.21
2018-09-27T19:44:16.523Z,10.23
2018-09-27T19:45:16.811Z,10.16
2018-09-27T19:46:17.085Z,10.16
2018-09-27T19:47:16.351Z,10.14
2018-09-27T19:48:16.614Z,10.14
2018-09-27T19:49:16.889Z,10.13
2018-09-27T19:50:17.167Z,10.06
2018-09-27T19:51:16.238Z,10.03
2018-09-27T19:52:16.570Z,10.01
2018-09-27T19:53:16.987Z,9.98
2018-09-27T19:54:16.255Z,9.96
2018-09-27T19:55:16.543Z,9.95
2018-09-27T19:56:16.810Z,9.92
2018-09-27T19:57:17.081Z,9.93
2018-09-27T19:58:16.445Z,9.92
2018-09-27T19:59:16.958Z,9.89
2018-09-27T20:00:16.233Z,9.88
2018-09-27T20:01:16.304Z,9.84
2018-09-27T20:02:16.565Z,9.81
2018-09-27T20:03:16.845Z,9.78
2018-09-27T20:04:17.257Z,9.78
2018-09-27T20:05:16.906Z,9.75
2018-09-27T20:06:17.174Z,9.74
2018-09-27T20:07:16.441Z,9.72
2018-09-27T20:08:16.707Z,9.66
2018-09-27T20:09:16.989Z,9.62
2018-09-27T20:10:16.439Z,9.58
2018-09-27T20:11:16.321Z,9.58
2018-09-27T20:12:16.591Z,9.50
2018-09-27T20:13:16.869Z,9.44
2018-09-27T20:14:17.150Z,9.40
2018-09-27T20:15:16.425Z,9.38
2018-09-27T20:16:16.839Z,9.40
2018-09-27T20:17:16.487Z,9.41
2018-09-27T20:18:16.768Z,9.45
2018-09-27T20:19:17.045Z,9.43
2018-09-27T20:20:16.326Z,9.40
2018-09-27T20:21:16.383Z,9.43
2018-09-27T20:22:16.660Z,9.40
2018-09-27T20:23:16.968Z,9.40
2018-09-27T20:24:16.236Z,9.37
2018-09-27T20:25:16.515Z,9.37
2018-09-27T20:26:16.781Z,9.38
2018-09-27T20:27:17.068Z,9.34
2018-09-27T20:28:16.540Z,9.34
2018-09-27T20:29:16.941Z,9.30
2018-09-27T20:30:16.238Z,9.31
2018-09-27T20:31:16.276Z,9.29
2018-09-27T20:32:16.543Z,9.31
2018-09-27T20:33:16.810Z,9.30
2018-09-27T20:34:17.144Z,9.36
2018-09-27T20:35:16.599Z,9.34
2018-09-27T20:36:16.862Z,9.33
2018-09-27T20:37:17.413Z,9.30
2018-09-27T20:38:16.698Z,9.27
2018-09-27T20:39:16.974Z,9.29
2018-09-27T20:40:16.248Z,9.26
2018-09-27T20:41:16.304Z,9.20
2018-09-27T20:42:16.575Z,9.23
2018-09-27T20:43:16.841Z,9.30
2018-09-27T20:44:17.114Z,9.38
2018-09-27T20:45:16.391Z,9.47
2018-09-27T20:46:16.673Z,9.40
2018-09-27T20:47:16.937Z,9.37
2018-09-27T20:48:16.210Z,9.27
2018-09-27T20:49:16.478Z,9.26
2018-09-27T20:50:16.764Z,9.26
2018-09-27T20:51:16.811Z,9.19
2018-09-27T20:52:17.072Z,9.20
2018-09-27T20:53:16.356Z,9.15
2018-09-27T20:54:16.628Z,9.17
2018-09-27T20:55:16.899Z,9.13
2018-09-27T20:56:17.180Z,9.15
2018-09-27T20:57:16.451Z,9.12
2018-09-27T20:58:16.726Z,9.10
2018-09-27T20:59:16.998Z,9.07
2018-09-27T21:00:16.274Z,9.10
2018-09-27T21:01:16.317Z,9.15
2018-09-27T21:02:16.582Z,9.22
2018-09-27T21:03:16.905Z,9.23
2018-09-27T21:04:16.308Z,9.19
2018-09-27T21:05:16.579Z,9.24
2018-09-27T21:06:16.985Z,9.23
2018-09-27T21:07:16.255Z,9.27
2018-09-27T21:08:16.528Z,9.47
2018-09-27T21:09:16.801Z,9.55
2018-09-27T21:10:17.111Z,9.57
2018-09-27T21:11:17.406Z,9.45
2018-09-27T21:12:16.671Z,9.33
2018-09-27T21:13:16.930Z,9.15
2018-09-27T21:14:17.200Z,9.12
2018-09-27T21:15:16.473Z,9.07
2018-09-27T21:16:16.741Z,8.99
2018-09-27T21:17:17.010Z,8.99
2018-09-27T21:18:16.273Z,8.92
2018-09-27T21:19:16.606Z,8.86
2018-09-27T21:20:16.939Z,8.74
2018-09-27T21:21:16.964Z,8.74
2018-09-27T21:22:16.237Z,8.65
2018-09-27T21:23:16.516Z,8.61
2018-09-27T21:24:16.785Z,8.62
2018-09-27T21:25:17.042Z,8.58
2018-09-27T21:26:16.337Z,8.54
2018-09-27T21:27:16.631Z,8.84
2018-09-27T21:28:16.896Z,9.44
2018-09-27T21:29:17.169Z,9.54
2018-09-27T21:30:16.453Z,9.61
2018-09-27T21:31:16.506Z,9.61
2018-09-27T21:32:16.772Z,9.64
2018-09-27T21:33:17.054Z,9.51
2018-09-27T21:34:16.333Z,9.30
2018-09-27T21:35:16.616Z,9.26
2018-09-27T21:36:16.881Z,9.13
2018-09-27T21:37:17.168Z,9.12
2018-09-27T21:38:16.434Z,9.00
2018-09-27T21:39:16.710Z,8.94
2018-09-27T21:40:16.991Z,8.92
2018-09-27T21:41:17.030Z,8.80
2018-09-27T21:42:16.310Z,8.78
2018-09-27T21:43:16.933Z,8.72
2018-09-27T21:44:16.375Z,8.71
2018-09-27T21:45:16.642Z,8.65
2018-09-27T21:46:16.908Z,8.64
2018-09-27T21:47:17.178Z,8.59
2018-09-27T21:48:16.443Z,8.54
2018-09-27T21:49:16.715Z,8.52
2018-09-27T21:50:17.211Z,8.45
2018-09-27T21:51:17.048Z,8.43
2018-09-27T21:52:16.293Z,8.36
2018-09-27T21:53:16.558Z,8.34
2018-09-27T21:54:16.837Z,8.30
2018-09-27T21:55:17.103Z,8.27
2018-09-27T21:56:16.374Z,8.26
2018-09-27T21:57:16.655Z,8.19
2018-09-27T21:58:16.931Z,8.19
2018-09-27T21:59:17.193Z,8.20
2018-09-27T22:00:16.494Z,8.23
2018-09-27T22:01:16.519Z,8.30
2018-09-27T22:02:16.789Z,8.33
2018-09-27T22:03:17.067Z,8.37
2018-09-27T22:04:16.340Z,8.30
2018-09-27T22:05:16.624Z,8.23
2018-09-27T22:06:16.897Z,8.23
2018-09-27T22:07:17.161Z,8.16
2018-09-27T22:08:16.432Z,8.14
2018-09-27T22:09:16.970Z,8.03
2018-09-27T22:10:16.272Z,7.99
2018-09-27T22:11:16.299Z,7.95
2018-09-27T22:12:16.575Z,7.96
2018-09-27T22:13:16.835Z,7.91
2018-09-27T22:14:17.134Z,7.91
2018-09-27T22:15:16.428Z,7.91
2018-09-27T22:16:16.693Z,7.86
2018-09-27T22:17:16.975Z,7.82
2018-09-27T22:18:16.221Z,7.81
2018-09-27T22:19:16.480Z,7.84
2018-09-27T22:20:16.742Z,7.84
2018-09-27T22:21:16.775Z,7.92
2018-09-27T22:22:17.041Z,7.89
2018-09-27T22:23:16.309Z,7.80
2018-09-27T22:24:16.573Z,7.78
2018-09-27T22:25:16.848Z,7.75
2018-09-27T22:26:17.084Z,7.72
2018-09-27T22:27:16.344Z,7.74
2018-09-27T22:28:16.618Z,7.71
2018-09-27T22:29:16.861Z,7.74
2018-09-27T22:30:17.143Z,7.71
2018-09-27T22:31:17.173Z,7.69
2018-09-27T22:32:16.430Z,7.68
2018-09-27T22:33:16.689Z,7.61
2018-09-27T22:34:16.961Z,7.57
2018-09-27T22:35:16.236Z,7.57
2018-09-27T22:36:16.477Z,7.57
2018-09-27T22:37:16.765Z,7.53
2018-09-27T22:38:17.062Z,7.53
2018-09-27T22:39:16.339Z,7.50
2018-09-27T22:40:16.617Z,7.47
2018-09-27T22:41:16.662Z,7.44
2018-09-27T22:42:16.936Z,7.41
2018-09-27T22:43:16.199Z,7.41
2018-09-27T22:44:16.463Z,7.44
2018-09-27T22:45:16.787Z,7.38
2018-09-27T22:46:17.056Z,7.40
2018-09-27T22:47:16.333Z,7.38
2018-09-27T22:48:16.623Z,7.38
2018-09-27T22:49:16.896Z,7.37
2018-09-27T22:50:17.221Z,7.37
2018-09-27T22:51:16.272Z,7.37
2018-09-27T22:52:16.541Z,7.34
2018-09-27T22:53:16.814Z,7.34
2018-09-27T22:54:17.090Z,7.35
2018-09-27T22:55:16.366Z,7.35
2018-09-27T22:56:16.632Z,7.31
2018-09-27T22:57:16.910Z,7.27
2018-09-27T22:58:17.181Z,7.23
2018-09-27T22:59:16.460Z,7.22
2018-09-27T23:00:16.747Z,7.27
2018-09-27T23:01:16.757Z,7.27
2018-09-27T23:02:17.016Z,7.34
2018-09-27T23:03:16.282Z,7.34
2018-09-27T23:04:16.555Z,7.27
2018-09-27T23:05:16.798Z,7.27
2018-09-27T23:06:17.057Z,7.23
2018-09-27T23:07:16.326Z,7.16
2018-09-27T23:08:16.609Z,7.17
2018-09-27T23:09:16.877Z,7.16
2018-09-27T23:10:17.161Z,7.15
2018-09-27T23:11:17.198Z,7.09
2018-09-27T23:12:16.475Z,7.09
2018-09-27T23:13:16.744Z,7.09
2018-09-27T23:14:17.011Z,7.06
2018-09-27T23:15:16.583Z,7.00
2018-09-27T23:16:16.853Z,6.96
2018-09-27T23:17:17.114Z,7.02
2018-09-27T23:18:16.377Z,7.02
2018-09-27T23:19:16.645Z,7.12
2018-09-27T23:20:16.991Z,7.10
2018-09-27T23:21:16.971Z,7.12
2018-09-27T23:22:16.255Z,7.23
2018-09-27T23:23:16.531Z,7.37
2018-09-27T23:24:16.800Z,7.43
2018-09-27T23:25:17.565Z,7.53
2018-09-27T23:26:16.834Z,7.35
2018-09-27T23:27:17.100Z,7.29
2018-09-27T23:28:16.377Z,7.16
2018-09-27T23:29:16.647Z,7.06
2018-09-27T23:30:16.956Z,7.03
2018-09-27T23:31:16.980Z,6.95
2018-09-27T23:32:16.267Z,6.91
2018-09-27T23:33:16.563Z,6.88
2018-09-27T23:34:16.845Z,6.85
2018-09-27T23:35:17.106Z,6.84
2018-09-27T23:36:16.376Z,6.75
2018-09-27T23:37:16.649Z,6.74
2018-09-27T23:38:16.909Z,6.69
2018-09-27T23:39:17.179Z,6.71
2018-09-27T23:40:16.466Z,6.69
2018-09-27T23:41:16.520Z,6.68
2018-09-27T23:42:16.791Z,6.65
2018-09-27T23:43:17.065Z,6.64
2018-09-27T23:44:16.344Z,6.57
2018-09-27T23:45:16.618Z,6.55
2018-09-27T23:46:16.883Z,6.55
2018-09-27T23:47:17.172Z,6.58
2018-09-27T23:48:16.439Z,6.64
2018-09-27T23:49:16.705Z,6.74
2018-09-27T23:50:16.982Z,6.82
2018-09-27T23:51:17.032Z,6.84
2018-09-27T23:52:16.307Z,6.85
2018-09-27T23:53:16.573Z,6.81
2018-09-27T23:54:16.847Z,6.82
2018-09-27T23:55:17.135Z,6.86
2018-09-27T23:56:16.398Z,6.79
2018-09-27T23:57:16.669Z,6.74
2018-09-27T23:58:16.939Z,6.69
2018-09-27T23:59:16.214Z,6.72
